createdAt,value
2022-08-28T00:02:07.206Z,25.82
2022-08-28T00:04:35.863Z,25.75
2022-08-28T00:07:03.486Z,25.67
2022-08-28T00:09:30.729Z,25.94
2022-08-28T00:11:58.283Z,25.58
2022-08-28T00:14:25.517Z,24.98
2022-08-28T00:16:52.923Z,25.32
2022-08-28T00:19:20.937Z,25.50
2022-08-28T00:21:48.170Z,25.58
2022-08-28T00:24:15.515Z,24.98
2022-08-28T00:27:01.871Z,24.98
2022-08-28T00:29:29.426Z,25.08
2022-08-28T00:31:57.572Z,25.28
2022-08-28T00:34:28.481Z,24.87
2022-08-28T00:37:01.157Z,24.90
2022-08-28T00:39:28.521Z,25.19
2022-08-28T00:41:58.000Z,24.89
2022-08-28T00:44:26.659Z,25.04
2022-08-28T00:46:55.278Z,24.99
2022-08-28T00:49:26.680Z,24.77
2022-08-28T00:52:10.790Z,24.85
2022-08-28T00:54:54.442Z,24.78
2022-08-28T00:57:35.943Z,25.03
2022-08-28T01:00:06.008Z,24.58
2022-08-28T01:02:33.593Z,24.79
2022-08-28T01:05:00.952Z,24.53
2022-08-28T01:07:28.239Z,24.39
2022-08-28T01:09:55.805Z,24.40
2022-08-28T01:12:25.218Z,24.50
2022-08-28T01:14:53.618Z,24.73
2022-08-28T01:17:21.649Z,24.55
2022-08-28T01:19:56.402Z,24.72
2022-08-28T01:22:37.407Z,24.60
2022-08-28T01:25:10.585Z,24.72
2022-08-28T01:27:41.889Z,24.72
2022-08-28T01:30:10.718Z,24.29
2022-08-28T01:32:39.443Z,24.27
2022-08-28T01:35:09.634Z,24.49
2022-08-28T01:37:37.193Z,24.16
2022-08-28T01:40:06.266Z,24.29
2022-08-28T01:42:37.826Z,23.89
2022-08-28T01:45:06.332Z,24.23
2022-08-28T01:47:33.579Z,23.91
2022-08-28T01:50:00.815Z,23.58
2022-08-28T01:52:29.048Z,23.51
2022-08-28T01:54:57.489Z,23.85
2022-08-28T01:57:25.307Z,23.70
2022-08-28T01:59:54.417Z,23.46
2022-08-28T02:02:22.752Z,23.78
2022-08-28T02:04:50.653Z,23.79
2022-08-28T02:07:17.972Z,23.89
2022-08-28T02:09:45.185Z,23.92
2022-08-28T02:12:12.711Z,23.52
2022-08-28T02:14:40.021Z,23.93
2022-08-28T02:17:07.238Z,23.99
2022-08-28T02:19:34.785Z,24.05
2022-08-28T02:22:04.020Z,23.29
2022-08-28T02:24:31.299Z,23.27
2022-08-28T02:26:58.839Z,23.57
2022-08-28T02:29:27.250Z,23.77
2022-08-28T02:31:55.883Z,23.63
2022-08-28T02:34:23.833Z,23.73
2022-08-28T02:36:51.068Z,23.90
2022-08-28T02:39:18.272Z,23.76
2022-08-28T02:41:45.803Z,23.84
2022-08-28T02:44:13.037Z,23.83
2022-08-28T02:46:40.242Z,23.34
2022-08-28T02:49:07.763Z,23.11
2022-08-28T02:51:35.340Z,22.31
2022-08-28T02:54:02.933Z,22.00
2022-08-28T02:56:31.098Z,22.06
2022-08-28T02:58:58.454Z,22.54
2022-08-28T03:01:25.849Z,22.40
2022-08-28T03:03:53.418Z,22.83
2022-08-28T03:06:20.962Z,23.08
2022-08-28T03:08:48.238Z,22.92
2022-08-28T03:11:15.757Z,22.46
2022-08-28T03:13:43.032Z,22.47
2022-08-28T03:16:10.252Z,22.69
2022-08-28T03:18:38.251Z,22.67
2022-08-28T03:21:05.545Z,22.62
2022-08-28T03:23:32.828Z,22.99
2022-08-28T03:26:01.787Z,23.02
2022-08-28T03:28:31.415Z,22.97
2022-08-28T03:30:58.662Z,23.12
2022-08-28T03:33:26.862Z,23.26
2022-08-28T03:35:55.625Z,23.18
2022-08-28T03:38:22.867Z,22.97
2022-08-28T03:40:53.539Z,22.94
2022-08-28T03:43:23.277Z,23.09
2022-08-28T03:45:59.001Z,22.86
2022-08-28T03:48:30.377Z,23.21
2022-08-28T03:50:57.977Z,23.38
2022-08-28T03:53:25.942Z,23.48
2022-08-28T03:55:53.694Z,23.36
2022-08-28T03:58:21.001Z,23.44
2022-08-28T04:00:48.288Z,23.23
2022-08-28T04:03:16.124Z,23.47
2022-08-28T04:05:44.040Z,23.45
2022-08-28T04:08:16.065Z,23.30
2022-08-28T04:10:44.228Z,23.44
2022-08-28T04:13:12.357Z,23.70
2022-08-28T04:15:39.793Z,23.72
2022-08-28T04:18:07.723Z,23.48
2022-08-28T04:20:34.953Z,23.56
2022-08-28T04:23:05.931Z,23.57
2022-08-28T04:25:33.490Z,23.37
2022-08-28T04:28:01.126Z,23.23
2022-08-28T04:30:28.448Z,22.89
2022-08-28T04:32:56.075Z,22.92
2022-08-28T04:35:23.355Z,23.29
2022-08-28T04:37:50.597Z,23.18
2022-08-28T04:40:19.333Z,23.12
2022-08-28T04:42:47.622Z,23.36
2022-08-28T04:45:14.888Z,23.22
2022-08-28T04:47:43.452Z,23.29
2022-08-28T04:50:11.105Z,23.20
2022-08-28T04:52:38.330Z,23.38
2022-08-28T04:55:06.101Z,23.48
2022-08-28T04:57:36.371Z,23.70
2022-08-28T05:00:05.172Z,23.86
2022-08-28T05:02:32.783Z,23.93
2022-08-28T05:05:00.127Z,24.04
2022-08-28T05:07:27.408Z,23.95
2022-08-28T05:09:54.919Z,24.09
2022-08-28T05:12:22.218Z,24.27
2022-08-28T05:14:49.518Z,24.31
2022-08-28T05:17:17.108Z,24.14
2022-08-28T05:19:44.501Z,24.30
2022-08-28T05:22:11.812Z,24.47
2022-08-28T05:24:40.124Z,24.35
2022-08-28T05:27:07.650Z,24.43
2022-08-28T05:29:34.953Z,24.52
2022-08-28T05:32:03.007Z,24.65
2022-08-28T05:34:31.377Z,24.67
2022-08-28T05:36:58.731Z,24.68
2022-08-28T05:39:26.383Z,24.71
2022-08-28T05:41:53.726Z,24.81
2022-08-28T05:44:21.581Z,24.91
2022-08-28T05:46:49.746Z,24.76
2022-08-28T05:49:18.402Z,24.81
2022-08-28T05:51:46.098Z,24.99
2022-08-28T05:54:15.002Z,25.01
2022-08-28T05:56:44.679Z,24.94
2022-08-28T05:59:12.417Z,24.98
2022-08-28T06:01:41.288Z,24.92
2022-08-28T06:04:10.619Z,24.89
2022-08-28T06:06:39.547Z,24.93
2022-08-28T06:09:08.235Z,24.87
2022-08-28T06:11:36.036Z,24.98
2022-08-28T06:14:04.765Z,25.02
2022-08-28T06:16:32.577Z,25.32
2022-08-28T06:19:00.785Z,25.27
2022-08-28T06:21:28.811Z,25.31
2022-08-28T06:23:56.488Z,25.45
2022-08-28T06:26:24.144Z,25.60
2022-08-28T06:28:53.155Z,25.75
2022-08-28T06:31:26.509Z,25.82
2022-08-28T06:33:56.399Z,26.10
2022-08-28T06:36:24.344Z,26.09
2022-08-28T06:38:51.757Z,26.12
2022-08-28T06:41:19.777Z,26.08
2022-08-28T06:43:47.105Z,26.20
2022-08-28T06:46:14.445Z,26.32
2022-08-28T06:48:42.110Z,26.51
2022-08-28T06:51:10.318Z,26.53
2022-08-28T06:53:38.092Z,26.62
2022-08-28T06:56:08.556Z,26.70
2022-08-28T06:58:37.510Z,26.71
2022-08-28T07:01:25.716Z,26.66
2022-08-28T07:03:53.911Z,26.85
2022-08-28T07:06:21.956Z,26.80
2022-08-28T07:08:49.640Z,26.87
2022-08-28T07:11:19.363Z,26.86
2022-08-28T07:13:46.958Z,26.89
2022-08-28T07:16:14.908Z,26.91
2022-08-28T07:18:42.829Z,26.93
2022-08-28T07:21:12.510Z,26.95
2022-08-28T07:23:40.630Z,26.96
2022-08-28T07:26:09.772Z,27.11
2022-08-28T07:28:37.705Z,27.17
2022-08-28T07:31:06.156Z,27.23
2022-08-28T07:33:34.116Z,26.99
2022-08-28T07:36:01.724Z,27.05
2022-08-28T07:38:29.012Z,27.03
2022-08-28T07:40:57.250Z,27.16
2022-08-28T07:43:43.383Z,27.27
2022-08-28T07:46:14.380Z,27.29
2022-08-28T07:48:41.877Z,27.05
2022-08-28T07:51:09.941Z,27.44
2022-08-28T07:53:37.822Z,27.43
2022-08-28T07:56:05.569Z,27.65
2022-08-28T07:58:32.948Z,27.72
2022-08-28T08:01:01.325Z,27.61
2022-08-28T08:03:30.106Z,27.36
2022-08-28T08:05:58.897Z,27.42
2022-08-28T08:08:26.293Z,27.46
2022-08-28T08:11:01.227Z,27.64
2022-08-28T08:13:32.397Z,27.59
2022-08-28T08:16:11.440Z,27.53
2022-08-28T08:18:39.167Z,27.59
2022-08-28T08:21:07.584Z,27.90
2022-08-28T08:23:35.033Z,27.83
2022-08-28T08:26:03.909Z,27.97
2022-08-28T08:28:32.758Z,27.70
2022-08-28T08:31:11.006Z,27.80
2022-08-28T08:33:39.535Z,27.82
2022-08-28T08:36:07.438Z,27.80
2022-08-28T08:38:34.868Z,27.85
2022-08-28T08:41:04.991Z,27.45
2022-08-28T08:43:33.869Z,28.15
2022-08-28T08:46:01.244Z,28.33
2022-08-28T08:48:32.869Z,28.14
2022-08-28T08:51:04.584Z,28.31
2022-08-28T08:53:34.954Z,27.98
2022-08-28T08:56:05.661Z,27.99
2022-08-28T08:58:34.809Z,27.81
2022-08-28T09:01:14.987Z,27.61
2022-08-28T09:03:53.062Z,28.02
2022-08-28T09:06:40.714Z,28.09
2022-08-28T09:09:13.832Z,28.36
2022-08-28T09:11:44.664Z,28.47
2022-08-28T09:14:14.272Z,28.59
2022-08-28T09:16:44.587Z,28.36
2022-08-28T09:19:12.929Z,28.40
2022-08-28T09:21:41.699Z,28.57
2022-08-28T09:24:22.501Z,28.58
2022-08-28T09:26:55.685Z,28.64
2022-08-28T09:29:31.539Z,28.56
2022-08-28T09:31:59.473Z,28.61
2022-08-28T09:34:29.550Z,28.71
2022-08-28T09:36:58.815Z,28.76
2022-08-28T09:39:28.410Z,28.78
2022-08-28T09:42:14.720Z,28.70
2022-08-28T09:44:51.322Z,28.95
2022-08-28T09:47:34.775Z,28.96
2022-08-28T09:50:14.514Z,28.54
2022-08-28T09:52:41.853Z,28.63
2022-08-28T09:55:10.960Z,28.83
2022-08-28T09:57:38.818Z,29.00
2022-08-28T10:00:06.741Z,28.93
2022-08-28T10:02:45.549Z,28.58
2022-08-28T10:05:16.266Z,29.06
2022-08-28T10:07:48.785Z,28.88
2022-08-28T10:10:32.731Z,28.82
2022-08-28T10:13:03.133Z,28.86
2022-08-28T10:15:43.335Z,29.13
2022-08-28T10:18:14.304Z,29.10
2022-08-28T10:21:01.420Z,29.11
2022-08-28T10:23:31.909Z,29.17
2022-08-28T10:26:15.893Z,29.13
2022-08-28T10:28:43.206Z,29.28
2022-08-28T10:31:31.667Z,29.44
2022-08-28T10:33:59.430Z,29.54
2022-08-28T10:36:33.831Z,29.42
2022-08-28T10:39:23.940Z,29.50
2022-08-28T10:41:54.470Z,29.47
2022-08-28T10:44:23.822Z,29.56
2022-08-28T10:46:55.706Z,29.67
2022-08-28T10:49:34.635Z,29.81
2022-08-28T10:52:02.259Z,29.96
2022-08-28T10:54:41.111Z,29.60
2022-08-28T10:57:08.916Z,29.70
2022-08-28T10:59:41.790Z,29.84
2022-08-28T11:02:10.683Z,29.78
2022-08-28T11:04:37.934Z,29.88
2022-08-28T11:07:06.244Z,30.02
2022-08-28T11:09:38.679Z,29.94
2022-08-28T11:12:10.322Z,30.01
2022-08-28T11:14:47.068Z,30.13
2022-08-28T11:17:21.882Z,29.99
2022-08-28T11:20:01.533Z,29.67
2022-08-28T11:22:38.432Z,30.01
2022-08-28T11:25:16.656Z,29.89
2022-08-28T11:28:02.946Z,30.25
2022-08-28T11:30:35.622Z,30.32
2022-08-28T11:33:04.328Z,30.28
2022-08-28T11:35:34.876Z,30.45
2022-08-28T11:38:02.293Z,30.38
2022-08-28T11:40:32.666Z,30.48
2022-08-28T11:43:16.126Z,30.77
2022-08-28T11:45:50.982Z,31.01
2022-08-28T11:48:34.576Z,30.87
2022-08-28T11:51:03.669Z,30.84
2022-08-28T11:53:34.293Z,31.27
2022-08-28T11:56:31.417Z,31.27
2022-08-28T11:59:18.432Z,31.52
2022-08-28T12:01:46.328Z,31.53
2022-08-28T12:04:19.053Z,31.76
2022-08-28T12:06:54.579Z,31.51
2022-08-28T12:09:25.958Z,31.85
2022-08-28T12:11:55.073Z,31.82
2022-08-28T12:14:25.916Z,32.03
2022-08-28T12:16:59.187Z,32.15
2022-08-28T12:19:28.536Z,32.29
2022-08-28T12:21:56.084Z,32.28
2022-08-28T12:24:24.460Z,32.42
2022-08-28T12:26:57.109Z,32.56
2022-08-28T12:29:39.042Z,32.59
2022-08-28T12:32:16.522Z,32.76
2022-08-28T12:34:50.191Z,32.53
2022-08-28T12:37:50.975Z,32.83
2022-08-28T12:40:25.662Z,32.59
2022-08-28T12:42:55.541Z,32.82
2022-08-28T12:45:24.735Z,33.00
2022-08-28T12:47:53.298Z,33.21
2022-08-28T12:50:26.353Z,33.18
2022-08-28T12:53:13.688Z,32.80
2022-08-28T12:55:41.634Z,32.88
2022-08-28T12:58:30.491Z,32.92
2022-08-28T13:00:59.234Z,33.02
2022-08-28T13:03:26.570Z,32.36
2022-08-28T13:06:04.723Z,32.62
2022-08-28T13:08:33.070Z,32.55
2022-08-28T13:11:00.461Z,32.60
2022-08-28T13:13:35.857Z,32.64
2022-08-28T13:16:04.606Z,32.61
2022-08-28T13:18:50.384Z,32.72
2022-08-28T13:21:33.993Z,32.67
2022-08-28T13:24:24.342Z,32.91
2022-08-28T13:27:05.877Z,33.02
2022-08-28T13:29:33.224Z,33.06
2022-08-28T13:32:02.040Z,32.81
2022-08-28T13:34:30.212Z,33.25
2022-08-28T13:37:01.352Z,33.53
2022-08-28T13:39:29.646Z,33.74
2022-08-28T13:41:58.075Z,33.20
2022-08-28T13:44:34.252Z,33.42
2022-08-28T13:47:02.601Z,33.57
2022-08-28T13:49:30.122Z,33.26
2022-08-28T13:51:58.276Z,33.30
2022-08-28T13:54:26.710Z,33.49
2022-08-28T13:56:55.931Z,33.65
2022-08-28T13:59:23.517Z,33.52
2022-08-28T14:02:11.899Z,33.60
2022-08-28T14:04:40.159Z,33.10
2022-08-28T14:07:08.192Z,33.27
2022-08-28T14:09:35.749Z,33.38
2022-08-28T14:12:04.306Z,33.72
2022-08-28T14:14:32.353Z,33.80
2022-08-28T14:17:00.679Z,33.69
2022-08-28T14:19:28.545Z,33.66
2022-08-28T14:21:55.836Z,33.77
2022-08-28T14:24:24.716Z,33.84
2022-08-28T14:26:52.814Z,34.06
2022-08-28T14:29:20.640Z,33.49
2022-08-28T14:31:47.985Z,33.65
2022-08-28T14:34:17.016Z,33.73
2022-08-28T14:36:44.249Z,33.62
2022-08-28T14:39:12.461Z,33.32
2022-08-28T14:41:44.490Z,33.71
2022-08-28T14:44:12.181Z,33.12
2022-08-28T14:46:42.187Z,33.21
2022-08-28T14:49:10.446Z,33.16
2022-08-28T14:51:38.994Z,33.20
2022-08-28T14:54:07.799Z,33.28
2022-08-28T14:56:35.396Z,32.85
2022-08-28T14:59:04.430Z,32.73
2022-08-28T15:01:39.697Z,33.01
2022-08-28T15:04:12.284Z,32.20
2022-08-28T15:06:41.748Z,32.41
2022-08-28T15:09:09.938Z,32.51
2022-08-28T15:11:37.514Z,32.71
2022-08-28T15:14:06.487Z,32.86
2022-08-28T15:16:35.049Z,32.80
2022-08-28T15:19:03.100Z,32.86
2022-08-28T15:21:32.769Z,32.72
2022-08-28T15:24:00.922Z,32.56
2022-08-28T15:26:29.025Z,32.58
2022-08-28T15:29:02.249Z,32.50
2022-08-28T15:31:30.627Z,32.43
2022-08-28T15:33:59.175Z,32.27
2022-08-28T15:36:26.399Z,32.23
2022-08-28T15:39:12.516Z,31.27
2022-08-28T15:41:40.171Z,31.09
2022-08-28T15:44:08.646Z,31.30
2022-08-28T15:46:37.438Z,31.00
2022-08-28T15:49:06.364Z,31.16
2022-08-28T15:51:36.551Z,30.94
2022-08-28T15:54:05.297Z,30.83
2022-08-28T15:56:32.781Z,31.02
2022-08-28T15:59:00.010Z,30.84
2022-08-28T16:01:27.625Z,30.70
2022-08-28T16:03:55.973Z,30.70
2022-08-28T16:06:23.309Z,30.72
2022-08-28T16:08:50.647Z,30.94
2022-08-28T16:11:19.062Z,30.77
2022-08-28T16:13:46.559Z,30.75
2022-08-28T16:16:13.788Z,30.69
2022-08-28T16:18:41.346Z,30.40
2022-08-28T16:21:08.627Z,30.51
2022-08-28T16:23:36.036Z,30.24
2022-08-28T16:26:03.963Z,30.53
2022-08-28T16:28:32.443Z,30.31
2022-08-28T16:31:02.966Z,30.62
2022-08-28T16:33:35.207Z,30.29
2022-08-28T16:36:10.719Z,30.41
2022-08-28T16:38:42.068Z,29.93
2022-08-28T16:41:13.512Z,30.26
2022-08-28T16:43:41.039Z,29.99
2022-08-28T16:46:12.426Z,30.11
2022-08-28T16:48:39.934Z,29.68
2022-08-28T16:51:07.850Z,29.96
2022-08-28T16:53:35.149Z,30.13
2022-08-28T16:56:03.105Z,29.97
2022-08-28T16:58:30.802Z,30.02
2022-08-28T17:00:58.389Z,30.05
2022-08-28T17:03:26.813Z,29.98
2022-08-28T17:05:57.677Z,29.71
2022-08-28T17:08:25.017Z,29.86
2022-08-28T17:10:52.521Z,29.84
2022-08-28T17:13:20.432Z,29.60
2022-08-28T17:15:47.964Z,29.77
2022-08-28T17:18:15.540Z,29.79
2022-08-28T17:21:02.144Z,29.55
2022-08-28T17:23:29.567Z,29.55
2022-08-28T17:25:57.510Z,29.54
2022-08-28T17:28:25.101Z,29.72
2022-08-28T17:30:52.585Z,29.69
2022-08-28T17:33:20.225Z,29.62
2022-08-28T17:35:50.378Z,29.66
2022-08-28T17:38:20.097Z,29.72
2022-08-28T17:40:47.752Z,29.61
2022-08-28T17:43:15.353Z,29.27
2022-08-28T17:45:43.169Z,29.50
2022-08-28T17:48:10.454Z,29.59
2022-08-28T17:50:38.031Z,29.56
2022-08-28T17:53:05.745Z,29.30
2022-08-28T17:55:33.236Z,29.48
2022-08-28T17:58:00.861Z,29.47
2022-08-28T18:00:28.883Z,29.47
2022-08-28T18:02:56.991Z,29.21
2022-08-28T18:05:24.603Z,29.30
2022-08-28T18:07:52.761Z,29.11
2022-08-28T18:10:22.011Z,29.16
2022-08-28T18:12:49.659Z,29.27
2022-08-28T18:15:17.735Z,29.10
2022-08-28T18:17:50.671Z,29.00
2022-08-28T18:20:18.839Z,28.86
2022-08-28T18:22:46.918Z,28.61
2022-08-28T18:25:34.499Z,28.69
2022-08-28T18:28:03.289Z,28.75
2022-08-28T18:30:30.993Z,28.55
2022-08-28T18:32:59.107Z,28.60
2022-08-28T18:35:31.549Z,28.48
2022-08-28T18:38:00.278Z,28.60
2022-08-28T18:40:28.730Z,28.54
2022-08-28T18:42:56.551Z,28.43
2022-08-28T18:45:24.897Z,28.02
2022-08-28T18:47:53.038Z,28.26
2022-08-28T18:50:23.919Z,28.12
2022-08-28T18:52:52.034Z,28.24
2022-08-28T18:55:20.646Z,28.50
2022-08-28T18:57:48.372Z,28.16
2022-08-28T19:00:19.214Z,28.40
2022-08-28T19:02:47.564Z,27.93
2022-08-28T19:05:16.106Z,27.93
2022-08-28T19:07:43.938Z,28.18
2022-08-28T19:10:28.345Z,28.23
2022-08-28T19:12:59.570Z,28.15
2022-08-28T19:15:28.744Z,28.07
2022-08-28T19:17:56.839Z,28.03
2022-08-28T19:20:24.643Z,27.77
2022-08-28T19:22:53.102Z,27.74
2022-08-28T19:25:27.444Z,27.70
2022-08-28T19:27:59.374Z,27.53
2022-08-28T19:30:28.600Z,27.49
2022-08-28T19:32:56.646Z,27.26
2022-08-28T19:35:24.969Z,27.22
2022-08-28T19:37:53.273Z,27.70
2022-08-28T19:40:21.597Z,27.57
2022-08-28T19:42:50.333Z,27.47
2022-08-28T19:45:18.187Z,27.44
2022-08-28T19:47:47.417Z,27.39
2022-08-28T19:50:15.537Z,27.29
2022-08-28T19:52:43.715Z,26.91
2022-08-28T19:55:16.830Z,26.98
2022-08-28T19:57:44.748Z,26.86
2022-08-28T20:00:15.629Z,27.02
2022-08-28T20:02:44.122Z,26.85
2022-08-28T20:05:11.537Z,26.83
2022-08-28T20:07:39.102Z,26.80
2022-08-28T20:10:12.622Z,26.91
2022-08-28T20:12:45.085Z,26.82
2022-08-28T20:15:17.758Z,26.91
2022-08-28T20:17:49.672Z,26.79
2022-08-28T20:20:18.776Z,26.89
2022-08-28T20:22:46.441Z,26.76
2022-08-28T20:25:14.807Z,26.75
2022-08-28T20:27:42.548Z,26.70
2022-08-28T20:30:11.009Z,26.68
2022-08-28T20:32:39.985Z,26.67
2022-08-28T20:35:09.176Z,26.48
2022-08-28T20:37:44.555Z,26.43
2022-08-28T20:40:14.939Z,26.26
2022-08-28T20:42:42.227Z,26.26
2022-08-28T20:45:09.671Z,26.15
2022-08-28T20:47:39.969Z,26.38
2022-08-28T20:50:07.502Z,26.38
2022-08-28T20:52:34.801Z,26.29
2022-08-28T20:55:02.342Z,26.22
2022-08-28T20:57:29.873Z,26.29
2022-08-28T20:59:57.395Z,26.17
2022-08-28T21:02:28.675Z,25.96
2022-08-28T21:04:56.241Z,26.14
2022-08-28T21:07:24.527Z,25.89
2022-08-28T21:10:04.879Z,26.24
2022-08-28T21:12:36.330Z,26.19
2022-08-28T21:15:05.204Z,26.17
2022-08-28T21:17:32.680Z,26.06
2022-08-28T21:20:14.842Z,26.20
2022-08-28T21:22:43.192Z,25.85
2022-08-28T21:25:14.836Z,26.06
2022-08-28T21:27:42.641Z,26.01
2022-08-28T21:30:11.993Z,26.27
2022-08-28T21:32:39.545Z,25.97
2022-08-28T21:35:08.301Z,25.82
2022-08-28T21:37:36.591Z,25.76
2022-08-28T21:40:05.210Z,25.49
2022-08-28T21:42:32.495Z,25.72
2022-08-28T21:45:03.236Z,25.31
2022-08-28T21:47:31.422Z,25.33
2022-08-28T21:49:59.079Z,25.41
2022-08-28T21:52:27.872Z,25.17
2022-08-28T21:55:02.348Z,25.16
2022-08-28T21:57:30.364Z,25.18
2022-08-28T21:59:58.566Z,25.20
2022-08-28T22:02:25.876Z,25.38
2022-08-28T22:04:53.809Z,25.53
2022-08-28T22:07:21.148Z,25.36
2022-08-28T22:09:49.968Z,25.56
2022-08-28T22:12:18.279Z,25.66
2022-08-28T22:14:46.218Z,25.07
2022-08-28T22:17:15.091Z,25.25
2022-08-28T22:19:42.726Z,25.33
2022-08-28T22:22:32.734Z,25.13
2022-08-28T22:25:00.326Z,25.09
2022-08-28T22:27:27.892Z,24.45
2022-08-28T22:29:55.694Z,24.74
2022-08-28T22:32:25.764Z,24.94
2022-08-28T22:34:54.214Z,24.33
2022-08-28T22:37:21.785Z,24.40
2022-08-28T22:39:49.480Z,24.70
2022-08-28T22:42:16.705Z,24.86
2022-08-28T22:44:43.940Z,24.63
2022-08-28T22:47:11.453Z,24.66
2022-08-28T22:49:39.672Z,24.39
2022-08-28T22:52:09.303Z,24.45
2022-08-28T22:54:36.825Z,24.32
2022-08-28T22:57:05.819Z,24.39
2022-08-28T22:59:33.526Z,24.13
2022-08-28T23:02:01.264Z,24.06
2022-08-28T23:04:28.578Z,24.28
2022-08-28T23:06:55.814Z,24.54
2022-08-28T23:09:23.281Z,24.53
2022-08-28T23:11:50.558Z,24.29
2022-08-28T23:14:17.878Z,24.27
2022-08-28T23:16:45.495Z,24.12
2022-08-28T23:19:13.544Z,23.87
2022-08-28T23:21:43.872Z,23.97
2022-08-28T23:24:12.618Z,23.80
2022-08-28T23:26:39.989Z,24.02
2022-08-28T23:29:07.274Z,24.11
2022-08-28T23:31:35.055Z,24.28
2022-08-28T23:34:02.785Z,24.00
2022-08-28T23:36:32.529Z,23.91
2022-08-28T23:39:03.240Z,23.86
2022-08-28T23:41:31.062Z,23.77
2022-08-28T23:43:58.279Z,23.95
2022-08-28T23:46:25.806Z,24.24
2022-08-28T23:48:53.012Z,24.00
2022-08-28T23:51:21.708Z,23.92
2022-08-28T23:53:49.268Z,23.60
2022-08-28T23:56:17.347Z,23.81
2022-08-28T23:58:45.615Z,23.52
